Time;durP1;ratioP1;P1;durP2;ratioP2;P2;SDS_P1;SDS_P2;PMS_P1;PMS_P2;Temp;Humidity;BMP_temperature;BMP_pressure;BME280_temperature;BME280_humidity;BME280_pressure;Samples;Min_cycle;Max_cycle;Signal;HPM_P1;HPM_P2
2022/11/25 00:02:27;;;;;;;17.43;4.13;;;;;;;8.60;100.00;100814.03;5266489;28;20028;-70
2022/11/25 00:04:58;;;;;;;21.97;5.50;;;;;;;8.62;100.00;100819.19;5273097;28;20031;-69
2022/11/25 00:07:29;;;;;;;16.07;4.00;;;;;;;8.72;100.00;100833.44;5267845;28;20035;-70
2022/11/25 00:10:01;;;;;;;20.60;4.70;;;;;;;8.71;100.00;100824.75;5272283;28;20137;-70
2022/11/25 00:12:32;;;;;;;18.60;3.70;;;;;;;8.71;100.00;100826.50;5272835;28;20036;-70
2022/11/25 00:15:04;;;;;;;15.50;3.90;;;;;;;8.75;100.00;100829.81;5267140;28;20436;-70
2022/11/25 00:17:35;;;;;;;17.63;3.60;;;;;;;8.67;100.00;100817.16;5274254;28;20036;-70
2022/11/25 00:20:07;;;;;;;13.40;3.67;;;;;;;8.73;100.00;100816.00;5273149;28;20036;-70
2022/11/25 00:22:38;;;;;;;17.13;3.70;;;;;;;8.73;100.00;100813.41;5273294;28;20498;-69
2022/11/25 00:25:10;;;;;;;16.63;4.23;;;;;;;8.63;100.00;100795.59;5267576;28;20038;-69
2022/11/25 00:27:41;;;;;;;19.30;4.93;;;;;;;8.73;100.00;100808.19;5255673;28;20043;-69
2022/11/25 00:30:13;;;;;;;14.70;3.83;;;;;;;8.70;100.00;100796.13;5270176;28;20452;-70
2022/11/25 00:32:44;;;;;;;21.83;4.97;;;;;;;8.71;100.00;100810.84;5274342;28;20566;-70
2022/11/25 00:35:15;;;;;;;18.37;3.60;;;;;;;8.71;100.00;100806.47;5264231;28;20029;-70
2022/11/25 00:37:46;;;;;;;13.90;3.40;;;;;;;8.72;100.00;100804.72;5266030;28;20090;-70
2022/11/25 00:40:18;;;;;;;21.83;4.30;;;;;;;8.73;100.00;100802.97;5262893;28;20056;-70
2022/11/25 00:45:39;;;;;;;22.53;4.97;;;;;;;8.67;100.00;100791.91;5269913;28;20033;-70
2022/11/25 00:48:10;;;;;;;22.03;4.60;;;;;;;8.71;100.00;100798.66;5273538;28;20020;-70
2022/11/25 00:50:41;;;;;;;20.43;4.67;;;;;;;8.71;100.00;100800.41;5269331;28;20046;-70
2022/11/25 00:53:12;;;;;;;21.67;4.27;;;;;;;8.72;100.00;100796.88;5269615;28;20470;-70
2022/11/25 00:58:34;;;;;;;16.73;3.50;;;;;;;8.73;100.00;100798.56;5271728;28;20037;-69
2022/11/25 01:01:05;;;;;;;17.87;4.10;;;;;;;8.70;100.00;100804.81;5268100;28;20021;-70
2022/11/25 01:03:37;;;;;;;15.50;3.23;;;;;;;8.75;100.00;100814.13;5259453;28;20035;-70
2022/11/25 01:06:10;;;;;;;20.27;5.00;;;;;;;8.75;100.00;100811.53;5263922;28;20021;-70
2022/11/25 01:08:41;;;;;;;20.17;4.10;;;;;;;8.71;100.00;100801.25;5271963;28;20145;-70
2022/11/25 01:11:15;;;;;;;17.53;3.73;;;;;;;8.75;100.00;100811.53;5273011;28;20074;-70
2022/11/25 01:13:47;;;;;;;17.42;4.13;;;;;;;8.76;100.00;100808.84;5274126;28;20031;-70
2022/11/25 01:16:19;;;;;;;21.40;4.47;;;;;;;8.79;100.00;100808.69;5273350;28;20036;-70
2022/11/25 01:18:51;;;;;;;18.53;4.40;;;;;;;8.79;100.00;100813.91;5258286;28;20040;-69
2022/11/25 01:21:25;;;;;;;18.77;4.40;;;;;;;8.79;100.00;100818.28;5272940;28;20040;-70
2022/11/25 01:24:02;;;;;;;17.08;4.07;;;;;;;8.80;100.00;100804.28;5271902;28;20036;-70
2022/11/25 01:26:34;;;;;;;21.33;3.83;;;;;;;8.78;100.00;100811.38;5273196;28;20682;-70
2022/11/25 01:29:11;;;;;;;16.00;3.67;;;;;;;8.82;100.00;100816.38;5273496;28;20021;-69
2022/11/25 01:31:43;;;;;;;14.07;4.23;;;;;;;8.88;100.00;100814.34;5273430;28;20016;-70
2022/11/25 01:34:20;;;;;;;21.30;4.53;;;;;;;8.88;100.00;100815.19;5271814;28;20279;-69
2022/11/25 01:36:51;;;;;;;22.40;3.90;;;;;;;8.86;100.00;100824.88;5272662;28;20513;-69
2022/11/25 01:39:23;;;;;;;14.00;4.00;;;;;;;8.86;100.00;100826.63;5259779;28;20025;-70
2022/11/25 01:41:55;;;;;;;20.40;4.80;;;;;;;8.88;100.00;100830.03;5272715;28;20036;-69
2022/11/25 01:44:28;;;;;;;13.60;3.63;;;;;;;8.89;100.00;100835.16;5272466;28;20356;-69
2022/11/25 01:47:12;;;;;;;18.67;4.27;;;;;;;8.91;100.00;100830.69;5274032;28;20029;-69
2022/11/25 01:49:58;;;;;;;14.70;3.97;;;;;;;8.92;100.00;100840.22;5259437;28;20371;-70
2022/11/25 01:52:34;;;;;;;15.07;3.87;;;;;;;8.89;100.00;100856.06;5272484;28;20032;-70
2022/11/25 01:55:13;;;;;;;25.30;4.80;;;;;;;8.94;100.00;100858.41;5272615;28;20112;-70
2022/11/25 01:57:51;;;;;;;17.17;4.40;;;;;;;8.97;100.00;100860.03;5273751;28;20395;-70
2022/11/25 02:00:22;;;;;;;16.23;3.87;;;;;;;8.91;100.00;100859.44;5265038;28;20055;-70
2022/11/25 02:02:54;;;;;;;13.67;4.60;;;;;;;8.96;100.00;100869.63;5324931;22;20060;-70
2022/11/25 02:05:45;;;;;;;19.63;5.13;;;;;;;9.01;100.00;100869.38;5291773;28;20038;-70
2022/11/25 02:08:18;;;;;;;16.13;4.63;;;;;;;9.01;100.00;100870.22;5297374;28;20020;-70
2022/11/25 02:10:53;;;;;;;18.03;3.37;;;;;;;9.03;100.00;100877.97;5298356;28;20390;-70
2022/11/25 02:13:25;;;;;;;19.27;5.60;;;;;;;9.00;100.00;100872.94;5296133;28;20085;-70
2022/11/25 02:15:56;;;;;;;19.50;4.60;;;;;;;9.00;100.00;100873.78;5298513;28;20016;-69
2022/11/25 02:18:27;;;;;;;15.27;4.03;;;;;;;8.99;100.00;100876.47;5296735;28;20028;-69
2022/11/25 02:20:59;;;;;;;13.93;3.87;;;;;;;8.98;100.00;100877.38;5301972;28;20028;-69
2022/11/25 02:23:43;;;;;;;21.33;4.23;;;;;;;8.91;100.00;100874.25;5297815;28;20074;-69
2022/11/25 02:26:15;;;;;;;23.70;4.78;;;;;;;8.98;100.00;100885.22;5298371;28;20065;-70
2022/11/25 02:28:47;;;;;;;19.43;4.93;;;;;;;8.94;100.00;100882.78;5294198;28;20019;-70
2022/11/25 02:31:20;;;;;;;18.23;3.87;;;;;;;9.01;100.00;100892.88;5287594;28;20055;-70
2022/11/25 02:33:52;;;;;;;19.37;4.40;;;;;;;8.99;100.00;100894.75;5296614;28;20020;-69
2022/11/25 02:36:23;;;;;;;17.43;3.30;;;;;;;9.00;100.00;100896.44;5297428;28;20493;-70
2022/11/25 02:39:02;;;;;;;17.37;3.87;;;;;;;8.97;100.00;100899.22;5297600;28;20036;-70
2022/11/25 02:41:42;;;;;;;14.30;4.30;;;;;;;8.91;100.00;100901.22;5297331;28;20027;-70
2022/11/25 02:44:14;;;;;;;17.40;3.90;;;;;;;8.92;100.00;100908.13;5296919;28;20036;-70
2022/11/25 02:46:45;;;;;;;16.70;3.27;;;;;;;8.91;100.00;100905.59;5298145;28;20036;-70
2022/11/25 02:49:17;;;;;;;18.73;3.97;;;;;;;8.86;100.00;100908.47;5296192;28;20107;-70
2022/11/25 02:51:48;;;;;;;16.47;4.33;;;;;;;8.85;100.00;100898.91;5286004;28;20025;-69
2022/11/25 02:54:19;;;;;;;13.90;2.70;;;;;;;8.80;100.00;100893.09;5292328;28;20073;-70
2022/11/25 02:56:51;;;;;;;11.53;3.13;;;;;;;8.83;100.00;100888.56;5297685;28;20036;-68
2022/11/25 02:59:22;;;;;;;18.53;3.73;;;;;;;8.79;100.00;100871.38;5296925;28;20031;-69
2022/11/25 03:01:53;;;;;;;11.33;2.83;;;;;;;8.72;100.00;100864.78;5297191;28;20438;-69
2022/11/25 03:04:24;;;;;;;15.73;3.23;;;;;;;8.75;100.00;100848.94;5295840;28;20489;-69
2022/11/25 03:06:56;;;;;;;16.07;3.20;;;;;;;8.59;100.00;100828.84;5296384;28;20020;-69
2022/11/25 03:09:27;;;;;;;14.80;3.60;;;;;;;8.62;100.00;100830.47;5295726;28;20020;-69
2022/11/25 03:14:48;;;;;;;15.27;3.53;;;;;;;8.56;100.00;100838.59;5296300;28;20048;-70
2022/11/25 03:17:19;;;;;;;12.17;3.13;;;;;;;8.61;100.00;100856.63;5296415;28;20036;-70
2022/11/25 03:19:51;;;;;;;13.47;3.47;;;;;;;8.60;100.00;100866.25;5294969;28;20034;-69
2022/11/25 03:22:22;;;;;;;11.27;2.80;;;;;;;8.63;100.00;100873.91;5283374;28;20109;-69
2022/11/25 03:24:53;;;;;;;9.77;2.73;;;;;;;8.55;100.00;100868.22;5296993;28;20039;-69
2022/11/25 03:27:25;;;;;;;14.90;3.37;;;;;;;8.43;100.00;100843.59;5296966;28;20612;-70
2022/11/25 03:29:56;;;;;;;12.47;3.27;;;;;;;8.53;100.00;100846.56;5296556;28;20120;-70
2022/11/25 03:32:27;;;;;;;16.50;3.20;;;;;;;8.56;100.00;100867.31;5282832;28;20078;-69
2022/11/25 03:34:59;;;;;;;11.30;2.77;;;;;;;8.52;100.00;100876.22;5296443;28;20035;-69
2022/11/25 03:37:30;;;;;;;6.63;2.33;;;;;;;8.56;100.00;100901.25;5296138;28;20105;-70
2022/11/25 03:40:03;;;;;;;12.03;2.37;;;;;;;8.53;100.00;100906.59;5297065;28;20064;-70
2022/11/25 03:42:35;;;;;;;8.67;2.17;;;;;;;8.55;100.00;100904.78;5295483;28;20028;-69
2022/11/25 03:45:09;;;;;;;11.93;2.03;;;;;;;8.43;100.00;100894.00;5296382;28;20020;-69
2022/11/25 03:47:41;;;;;;;10.35;2.28;;;;;;;8.55;100.00;100908.22;5296098;28;20040;-70
2022/11/25 03:50:14;;;;;;;9.80;2.40;;;;;;;8.52;100.00;100904.94;5294874;28;20043;-69
2022/11/25 03:52:45;;;;;;;12.97;2.60;;;;;;;8.52;100.00;100904.94;5296681;28;20020;-69
2022/11/25 03:55:16;;;;;;;11.30;2.50;;;;;;;8.59;100.00;100911.53;5296076;28;20047;-69
2022/11/25 03:57:48;;;;;;;6.63;1.97;;;;;;;8.50;100.00;100927.66;5295165;28;20377;-69
2022/11/25 04:00:19;;;;;;;8.63;1.70;;;;;;;8.51;100.00;100911.06;5295846;28;20036;-69
2022/11/25 04:02:50;;;;;;;7.93;1.60;;;;;;;8.47;100.00;100919.03;5295871;28;20052;-68
2022/11/25 04:05:21;;;;;;;6.83;1.13;;;;;;;8.55;100.00;100923.91;5294930;28;20028;-68
2022/11/25 04:07:53;;;;;;;10.07;2.10;;;;;;;8.41;100.00;100914.09;5296054;28;20024;-70
2022/11/25 04:10:24;;;;;;;8.83;1.87;;;;;;;8.34;100.00;100929.22;5295637;28;20028;-69
2022/11/25 04:12:55;;;;;;;9.07;2.17;;;;;;;8.36;100.00;100926.53;5295752;28;20024;-70
2022/11/25 04:15:26;;;;;;;5.60;1.40;;;;;;;8.40;100.00;100928.09;5295151;28;20032;-70
2022/11/25 04:17:58;;;;;;;9.40;2.20;;;;;;;8.43;100.00;100937.56;5295746;28;20445;-69
2022/11/25 04:20:29;;;;;;;8.43;1.40;;;;;;;8.37;100.00;100938.69;5294674;28;20035;-70
2022/11/25 04:23:00;;;;;;;7.93;1.67;;;;;;;8.39;100.00;100936.84;5294645;28;20137;-70
2022/11/25 04:25:32;;;;;;;8.73;1.57;;;;;;;8.26;100.00;100948.78;5295439;28;20034;-70
2022/11/25 04:28:04;;;;;;;5.00;1.57;;;;;;;8.28;100.00;100957.41;5296277;28;20034;-70
2022/11/25 04:30:36;;;;;;;6.33;1.77;;;;;;;8.22;100.00;100940.28;5278332;28;20819;-70
2022/11/25 04:33:07;;;;;;;7.37;1.73;;;;;;;8.26;100.00;100960.09;5294794;28;20694;-70
2022/11/25 04:35:38;;;;;;;6.47;1.70;;;;;;;8.28;100.00;100965.22;5294991;28;20107;-70
2022/11/25 04:38:09;;;;;;;8.37;2.37;;;;;;;8.18;100.00;100957.00;5295555;28;20035;-69
2022/11/25 04:40:41;;;;;;;6.40;1.40;;;;;;;8.21;100.00;100969.91;5283545;28;20032;-69
2022/11/25 04:43:12;;;;;;;8.57;2.00;;;;;;;8.22;100.00;100982.88;5296026;28;20024;-70
2022/11/25 04:45:44;;;;;;;7.07;1.40;;;;;;;8.17;100.00;100984.03;5295191;28;20110;-69
2022/11/25 04:48:16;;;;;;;6.90;1.57;;;;;;;8.09;100.00;100966.09;5294193;28;20847;-70
2022/11/25 04:50:47;;;;;;;5.13;1.47;;;;;;;8.18;100.00;100981.34;5294685;28;20107;-70
2022/11/25 04:53:18;;;;;;;9.17;1.70;;;;;;;8.07;100.00;100976.63;5295418;28;20111;-70
2022/11/25 04:55:49;;;;;;;7.23;2.07;;;;;;;8.01;100.00;100973.47;5295219;28;20016;-70
2022/11/25 05:01:10;;;;;;;6.37;1.83;;;;;;;8.10;100.00;100989.50;5293057;28;20422;-69
2022/11/25 05:03:42;;;;;;;6.17;1.40;;;;;;;8.09;100.00;100998.28;5283615;28;20024;-70
2022/11/25 05:06:13;;;;;;;4.27;1.57;;;;;;;8.04;100.00;100994.19;5293520;28;20024;-69
2022/11/25 05:08:48;;;;;;;6.57;2.30;;;;;;;8.07;100.00;100994.03;5295172;28;20038;-70
2022/11/25 05:11:19;;;;;;;9.10;2.17;;;;;;;8.03;100.00;101000.31;5290630;28;20107;-70
2022/11/25 05:13:51;;;;;;;5.33;2.40;;;;;;;8.02;100.00;100996.00;5294954;28;20110;-69
2022/11/25 05:16:22;;;;;;;6.77;2.27;;;;;;;7.97;100.00;101002.31;5294056;28;20165;-69
2022/11/25 05:18:56;;;;;;;5.60;2.00;;;;;;;7.91;100.00;101002.56;5294456;28;20086;-69
2022/11/25 05:21:28;;;;;;;7.75;2.45;;;;;;;7.87;100.00;101001.03;5294375;28;20518;-70
2022/11/25 05:23:59;;;;;;;5.17;1.90;;;;;;;7.70;100.00;100976.56;5295147;28;20054;-70
2022/11/25 05:26:30;;;;;;;6.03;2.03;;;;;;;7.82;100.00;101006.44;5280430;28;20108;-69
2022/11/25 05:29:02;;;;;;;8.23;2.63;;;;;;;7.82;100.00;101003.84;5294887;28;20462;-70
2022/11/25 05:31:33;;;;;;;8.00;2.10;;;;;;;7.77;100.00;100999.75;5292141;28;20028;-69
2022/11/25 05:34:05;;;;;;;7.67;2.80;;;;;;;7.74;100.00;100998.97;5293722;28;20040;-70
2022/11/25 05:36:36;;;;;;;8.00;2.00;;;;;;;7.78;100.00;101014.47;5294871;28;20610;-70
2022/11/25 05:39:07;;;;;;;8.83;2.63;;;;;;;7.73;100.00;101004.25;5295894;28;20107;-70
2022/11/25 05:41:39;;;;;;;11.67;3.30;;;;;;;7.66;100.00;100995.88;5299425;28;20028;-70
2022/11/25 05:44:10;;;;;;;10.90;3.10;;;;;;;7.71;100.00;101014.78;5298643;28;20024;-70
2022/11/25 05:46:45;;;;;;;7.67;2.53;;;;;;;7.64;100.00;101015.94;5284345;28;20033;-69
2022/11/25 05:49:17;;;;;;;11.03;3.60;;;;;;;7.68;100.00;101025.31;5296273;28;20050;-70
2022/11/25 05:51:49;;;;;;;12.93;4.20;;;;;;;7.50;100.00;101024.38;5285344;28;20059;-69
2022/11/25 05:54:20;;;;;;;6.57;2.60;;;;;;;7.58;100.00;101026.63;5296115;28;20055;-70
2022/11/25 05:56:51;;;;;;;11.97;3.70;;;;;;;7.57;100.00;101033.63;5297070;28;20038;-70
2022/11/25 05:59:22;;;;;;;8.50;2.77;;;;;;;7.56;100.00;101025.84;5298245;28;20016;-69
2022/11/25 06:01:54;;;;;;;9.30;3.67;;;;;;;7.54;100.00;101030.31;5296604;28;20104;-69
2022/11/25 06:04:25;;;;;;;9.43;3.03;;;;;;;7.43;100.00;101021.19;5282831;28;20025;-70
2022/11/25 06:06:56;;;;;;;11.20;3.43;;;;;;;7.54;100.00;101027.69;5293064;28;20432;-70
2022/11/25 06:09:27;;;;;;;11.70;3.53;;;;;;;7.52;100.00;101034.75;5297379;28;20035;-70
2022/11/25 06:11:59;;;;;;;15.87;4.63;;;;;;;7.50;100.00;101038.25;5298135;28;20063;-70
2022/11/25 06:14:30;;;;;;;14.90;4.27;;;;;;;7.51;100.00;101044.31;5297890;28;20080;-70
2022/11/25 06:17:01;;;;;;;8.43;3.07;;;;;;;7.44;100.00;101042.88;5297905;28;20067;-70
2022/11/25 06:19:32;;;;;;;12.87;3.37;;;;;;;7.45;100.00;101050.63;5296811;28;20428;-71
2022/11/25 06:22:04;;;;;;;8.00;3.63;;;;;;;7.46;100.00;101038.44;5294157;28;20038;-70
2022/11/25 06:24:35;;;;;;;9.30;3.53;;;;;;;7.43;100.00;101060.28;5298314;28;20047;-70
2022/11/25 06:27:06;;;;;;;13.37;4.17;;;;;;;7.44;100.00;101056.75;5297407;28;20034;-70
2022/11/25 06:29:38;;;;;;;11.67;4.67;;;;;;;7.45;100.00;101050.63;5293816;28;20035;-70
2022/11/25 06:32:09;;;;;;;14.63;5.20;;;;;;;7.40;100.00;101057.78;5292268;28;20055;-70
2022/11/25 06:34:41;;;;;;;15.40;4.60;;;;;;;7.31;100.00;101063.41;5296334;28;20050;-70
2022/11/25 06:37:12;;;;;;;16.67;5.00;;;;;;;7.39;100.00;101082.16;5297198;28;20602;-70
2022/11/25 06:39:44;;;;;;;15.37;4.63;;;;;;;7.37;100.00;101078.78;5297433;28;20126;-70
2022/11/25 06:42:15;;;;;;;12.80;4.30;;;;;;;7.16;100.00;101070.13;5296695;28;20270;-70
2022/11/25 06:44:46;;;;;;;12.33;5.20;;;;;;;7.21;100.00;101082.03;5296388;28;20043;-70
2022/11/25 06:47:18;;;;;;;12.30;4.73;;;;;;;7.29;100.00;101088.69;5296780;28;20027;-70
2022/11/25 06:49:49;;;;;;;14.33;5.37;;;;;;;7.14;100.00;101083.19;5296695;28;20031;-70
2022/11/25 06:52:20;;;;;;;16.30;5.17;;;;;;;7.32;100.00;101096.38;5293721;28;20084;-70
2022/11/25 06:54:52;;;;;;;12.23;4.77;;;;;;;7.05;100.00;101076.59;5295762;28;20115;-70
2022/11/25 06:57:24;;;;;;;16.73;4.80;;;;;;;7.22;100.00;101093.31;5294113;28;20119;-71
2022/11/25 06:59:55;;;;;;;15.67;5.00;;;;;;;7.20;100.00;101092.53;5294728;28;20063;-71
2022/11/25 07:02:26;;;;;;;21.00;6.23;;;;;;;7.11;100.00;101091.16;5294909;28;20044;-70
2022/11/25 07:04:58;;;;;;;13.50;4.23;;;;;;;7.17;100.00;101098.72;5294739;28;20031;-70
2022/11/25 07:07:29;;;;;;;11.90;3.70;;;;;;;7.21;100.00;101104.66;5295735;28;20088;-71
2022/11/25 07:10:00;;;;;;;13.30;4.73;;;;;;;7.20;100.00;101103.78;5296408;28;20695;-70
2022/11/25 07:12:31;;;;;;;16.07;4.10;;;;;;;7.16;100.00;101102.22;5294144;28;20561;-70
2022/11/25 07:15:03;;;;;;;16.37;5.40;;;;;;;7.12;100.00;101101.50;5296770;28;20035;-70
2022/11/25 07:17:34;;;;;;;13.93;4.63;;;;;;;6.99;100.00;101119.41;5293269;28;20043;-70
2022/11/25 07:20:07;;;;;;;13.47;3.70;;;;;;;7.13;100.00;101124.03;5295342;28;20060;-70
2022/11/25 07:22:38;;;;;;;10.90;4.03;;;;;;;7.07;100.00;101123.44;5296461;28;20119;-69
2022/11/25 07:25:09;;;;;;;12.73;4.40;;;;;;;6.97;100.00;101129.03;5295829;28;20149;-70
2022/11/25 07:27:40;;;;;;;12.87;3.83;;;;;;;7.07;100.00;101145.13;5289388;28;20092;-71
2022/11/25 07:30:12;;;;;;;15.70;4.53;;;;;;;7.05;100.00;101135.69;5288452;28;20085;-71
2022/11/25 07:32:43;;;;;;;10.50;3.13;;;;;;;7.10;100.00;101141.56;5287141;28;20066;-72
2022/11/25 07:35:15;;;;;;;10.40;3.57;;;;;;;7.09;100.00;101142.44;5286741;28;20093;-71
2022/11/25 07:37:46;;;;;;;12.30;3.47;;;;;;;7.05;100.00;101149.53;5286912;28;21345;-71
2022/11/25 07:40:17;;;;;;;16.93;4.53;;;;;;;7.08;100.00;101159.00;5287839;28;20427;-70
2022/11/25 07:42:48;;;;;;;9.47;3.13;;;;;;;7.07;100.00;101158.13;5285993;28;20456;-72
2022/11/25 07:45:20;;;;;;;12.50;2.80;;;;;;;7.06;100.00;101166.00;5284685;28;20040;-69
2022/11/25 07:47:51;;;;;;;10.90;3.60;;;;;;;7.10;100.00;101185.84;5289571;28;20039;-72
2022/11/25 07:50:23;;;;;;;15.70;3.90;;;;;;;7.06;100.00;101189.47;5287143;28;20024;-71
2022/11/25 07:52:54;;;;;;;14.67;3.77;;;;;;;7.05;100.00;101198.19;5287647;28;20035;-70
2022/11/25 07:55:25;;;;;;;10.80;3.60;;;;;;;7.00;100.00;101191.38;5286346;28;20048;-71
2022/11/25 07:57:56;;;;;;;15.23;3.93;;;;;;;7.07;100.00;101197.19;5285914;28;20123;-71
2022/11/25 08:00:28;;;;;;;12.80;4.07;;;;;;;7.10;100.00;101201.47;5287957;28;20016;-71
2022/11/25 08:02:59;;;;;;;7.03;2.50;;;;;;;7.09;100.00;101212.78;5285142;28;20044;-71
2022/11/25 08:05:32;;;;;;;10.87;3.30;;;;;;;7.04;100.00;101205.16;5293036;28;20089;-71
2022/11/25 08:08:03;;;;;;;10.20;2.80;;;;;;;7.07;100.00;101215.44;5289377;28;20111;-71
2022/11/25 08:10:39;;;;;;;12.43;3.60;;;;;;;7.15;100.00;101222.97;5284101;28;20127;-71
2022/11/25 08:13:10;;;;;;;12.60;3.60;;;;;;;7.14;100.00;101223.84;5290398;28;20051;-71
2022/11/25 08:15:41;;;;;;;10.13;3.87;;;;;;;7.16;100.00;101224.66;5294859;28;20435;-70
2022/11/25 08:18:13;;;;;;;8.97;3.10;;;;;;;7.18;100.00;101225.44;5291936;28;20052;-71
2022/11/25 08:20:44;;;;;;;10.90;3.00;;;;;;;7.20;100.00;101235.78;5290968;28;20023;-71
2022/11/25 08:23:15;;;;;;;12.03;3.43;;;;;;;7.19;100.00;101234.13;5294142;28;20387;-71
2022/11/25 08:25:46;;;;;;;8.00;3.30;;;;;;;7.19;100.00;101241.94;5296774;28;20082;-71
2022/11/25 08:28:18;;;;;;;10.00;3.60;;;;;;;7.17;100.00;101244.59;5290021;28;20032;-71
2022/11/25 08:30:49;;;;;;;9.40;3.10;;;;;;;7.18;100.00;101237.59;5293119;28;20032;-72
2022/11/25 08:33:20;;;;;;;11.93;3.57;;;;;;;7.26;100.00;101249.44;5293590;28;20120;-73
2022/11/25 08:35:53;;;;;;;13.77;4.30;;;;;;;7.26;100.00;101254.63;5293569;28;20077;-72
2022/11/25 08:38:25;;;;;;;12.87;4.30;;;;;;;7.26;100.00;101254.63;5290583;28;20035;-72
2022/11/25 08:40:57;;;;;;;14.43;3.40;;;;;;;7.35;100.00;101257.78;5308456;28;20031;-72
2022/11/25 08:43:28;;;;;;;9.80;2.90;;;;;;;7.38;100.00;101252.47;5293394;28;20116;-72
2022/11/25 08:46:00;;;;;;;9.40;3.33;;;;;;;7.32;100.00;101243.13;5294970;28;20085;-73
2022/11/25 08:48:31;;;;;;;10.23;2.93;;;;;;;7.41;100.00;101251.50;5290714;28;20135;-73
2022/11/25 08:51:10;;;;;;;13.47;3.40;;;;;;;7.44;100.00;101257.44;5293725;28;20082;-73
2022/11/25 08:53:43;;;;;;;11.10;3.23;;;;;;;7.39;100.00;101248.94;5292266;28;20036;-73
2022/11/25 08:56:14;;;;;;;17.23;3.50;;;;;;;7.45;100.00;101264.31;5291775;28;20066;-73
2022/11/25 08:58:47;;;;;;;11.27;3.50;;;;;;;7.45;100.00;101247.88;5289915;28;20123;-72
2022/11/25 09:01:19;;;;;;;9.00;3.63;;;;;;;7.53;100.00;101255.34;5293072;28;20097;-71
2022/11/25 09:03:54;;;;;;;10.93;3.17;;;;;;;7.49;100.00;101254.63;5292675;28;20024;-72
2022/11/25 09:06:27;;;;;;;10.93;3.55;;;;;;;7.56;100.00;101265.66;5290872;28;20063;-71
2022/11/25 09:09:00;;;;;;;16.37;3.97;;;;;;;7.61;100.00;101272.38;5291952;28;20012;-72
2022/11/25 09:11:31;;;;;;;9.67;3.97;;;;;;;7.61;100.00;101269.78;5293360;28;20020;-71
2022/11/25 09:14:03;;;;;;;14.13;3.40;;;;;;;7.68;100.00;101286.03;5294487;28;20031;-71
2022/11/25 09:16:35;;;;;;;11.67;3.23;;;;;;;7.70;100.00;101279.00;5291544;28;20043;-71
2022/11/25 09:19:07;;;;;;;9.33;2.83;;;;;;;7.74;100.00;101280.56;5292157;28;20024;-72
2022/11/25 09:21:38;;;;;;;8.80;2.87;;;;;;;7.81;100.00;101296.81;5292887;28;20023;-71
2022/11/25 09:24:09;;;;;;;11.30;3.67;;;;;;;7.86;100.00;101287.03;5293794;28;20615;-71
2022/11/25 09:26:41;;;;;;;12.93;4.00;;;;;;;7.86;100.00;101287.03;5291833;28;20022;-72
2022/11/25 09:29:12;;;;;;;9.90;4.03;;;;;;;8.47;100.00;101294.06;5293507;28;20028;-72
2022/11/25 09:31:44;;;;;;;13.93;3.67;;;;;;;9.66;100.00;101294.78;5292167;28;20012;-72
2022/11/25 09:34:15;;;;;;;13.40;4.23;;;;;;;10.70;100.00;101305.38;5292262;28;20043;-72
2022/11/25 09:36:46;;;;;;;12.80;3.73;;;;;;;10.89;100.00;101297.38;5291302;28;20036;-72
2022/11/25 09:39:18;;;;;;;7.83;3.07;;;;;;;10.99;100.00;101316.06;5283065;28;20028;-72
2022/11/25 09:48:01;;;;;;;11.93;3.53;;;;;;;10.15;100.00;101321.22;5275910;28;20041;-72
2022/11/25 09:51:02;;;;;;;13.17;4.80;;;;;;;10.05;100.00;101328.69;5291756;28;20772;-72
2022/11/25 09:53:51;;;;;;;11.13;3.50;;;;;;;9.98;100.00;101340.38;5291888;28;20107;-72
2022/11/25 09:56:41;;;;;;;15.33;3.67;;;;;;;9.88;100.00;101335.59;5292882;28;20031;-72
2022/11/25 09:59:25;;;;;;;11.53;4.13;;;;;;;9.82;100.00;101335.03;5288766;28;20020;-72
2022/11/25 10:02:13;;;;;;;11.07;3.30;;;;;;;9.77;100.00;101337.91;5293295;28;20143;-72
2022/11/25 10:04:59;;;;;;;13.43;4.20;;;;;;;9.69;100.00;101340.88;5288330;28;20016;-71
2022/11/25 10:07:56;;;;;;;12.40;3.50;;;;;;;9.73;100.00;101338.94;5290318;28;20553;-72
2022/11/25 10:10:41;;;;;;;12.70;4.03;;;;;;;9.70;100.00;101342.56;5281620;28;20102;-72
2022/11/25 10:13:20;;;;;;;13.40;4.07;;;;;;;9.67;100.00;101348.78;5293636;28;20016;-71
2022/11/25 10:15:56;;;;;;;15.30;4.77;;;;;;;9.71;100.00;101351.25;5293447;28;20115;-72
2022/11/25 10:18:41;;;;;;;14.03;3.73;;;;;;;9.73;100.00;101359.88;5289262;28;20039;-72
2022/11/25 10:21:12;;;;;;;13.45;4.05;;;;;;;9.71;100.00;101370.41;5289557;28;20016;-73
2022/11/25 10:23:43;;;;;;;13.53;3.70;;;;;;;9.84;100.00;101375.06;5288484;28;20030;-72
2022/11/25 10:26:19;;;;;;;10.90;3.30;;;;;;;9.79;100.00;101383.16;5292850;28;20039;-75
2022/11/25 10:28:59;;;;;;;12.83;3.63;;;;;;;9.75;100.00;101376.34;5292729;28;20031;-73
2022/11/25 10:31:36;;;;;;;17.00;3.53;;;;;;;9.76;100.00;101389.34;5296083;28;20040;-73
2022/11/25 10:34:35;;;;;;;15.33;3.47;;;;;;;9.84;100.00;101396.00;5289459;28;20031;-75
2022/11/25 10:37:18;;;;;;;11.87;3.70;;;;;;;9.90;100.00;101398.31;5293621;28;20404;-74
2022/11/25 10:39:49;;;;;;;10.17;3.00;;;;;;;9.92;100.00;101393.84;5289572;28;20028;-74
2022/11/25 10:42:24;;;;;;;14.37;3.83;;;;;;;9.82;100.00;101396.06;5295980;28;20841;-75
2022/11/25 10:44:55;;;;;;;;;;;;;;;10.09;100.00;101400.06;5296076;28;20352;-75
2022/11/25 10:47:32;;;;;;;12.43;3.60;;;;;;;9.95;100.00;101403.34;5292373;28;19961;-74
2022/11/25 10:50:31;;;;;;;9.57;3.60;;;;;;;9.96;100.00;101405.00;5290362;28;20388;-75
2022/11/25 10:53:16;;;;;;;7.67;2.57;;;;;;;10.09;100.00;101413.13;5287091;28;20059;-76
2022/11/25 10:56:10;;;;;;;10.35;2.92;;;;;;;10.09;100.00;101415.75;5297053;28;20435;-76
2022/11/25 10:58:42;;;;;;;13.65;4.43;;;;;;;10.15;100.00;101400.59;5293960;28;20024;-75
2022/11/25 11:01:20;;;;;;;11.47;3.10;;;;;;;10.24;100.00;101414.16;5295200;28;20046;-75
2022/11/25 11:04:05;;;;;;;13.03;3.53;;;;;;;10.24;100.00;101414.16;5295751;28;20097;-75
2022/11/25 11:06:38;;;;;;;;;;;;;;;10.35;100.00;101421.47;5293284;28;20040;-73
2022/11/25 11:09:42;;;;;;;10.73;3.87;;;;;;;10.38;100.00;101426.56;5295579;28;19916;-72
2022/11/25 11:12:23;;;;;;;11.80;3.53;;;;;;;10.36;100.00;101426.63;5279343;28;20417;-72
2022/11/25 11:15:17;;;;;;;12.93;3.97;;;;;;;10.37;100.00;101424.84;5290786;28;20027;-73
2022/11/25 11:17:48;;;;;;;13.03;4.90;;;;;;;10.43;100.00;101429.78;5278094;28;20482;-71
2022/11/25 11:20:26;;;;;;;12.43;4.07;;;;;;;10.44;100.00;101439.31;5294650;28;20085;-70
2022/11/25 11:23:07;;;;;;;12.30;4.13;;;;;;;10.50;100.00;101440.84;5292953;28;20019;-72
2022/11/25 11:25:41;;;;;;;10.00;2.70;;;;;;;10.41;100.00;101437.72;5295235;28;20028;-73
2022/11/25 11:28:35;;;;;;;9.73;3.28;;;;;;;10.62;100.00;101445.47;5292906;28;20027;-74
2022/11/25 11:31:17;;;;;;;14.87;4.40;;;;;;;10.59;100.00;101453.47;5292649;28;20016;-71
2022/11/25 11:34:19;;;;;;;11.20;2.80;;;;;;;10.57;100.00;101457.94;5294572;28;20028;-72
2022/11/25 11:37:00;;;;;;;8.87;2.93;;;;;;;10.53;100.00;101453.78;5287476;28;20036;-71
2022/11/25 11:39:44;;;;;;;7.63;1.93;;;;;;;10.50;100.00;101462.63;5294798;28;20054;-72
2022/11/25 11:42:44;;;;;;;11.50;2.50;;;;;;;10.58;100.00;101467.47;5294106;28;20097;-71
2022/11/25 11:45:24;;;;;;;9.03;2.73;;;;;;;10.56;100.00;101477.19;5268204;28;20032;-71
2022/11/25 11:48:07;;;;;;;7.87;2.30;;;;;;;10.62;100.00;101478.66;5284162;28;20051;-72
2022/11/25 11:50:49;;;;;;;9.20;2.50;;;;;;;10.58;100.00;101480.56;5294643;28;20482;-73
2022/11/25 11:53:26;;;;;;;10.23;2.63;;;;;;;10.53;100.00;101477.34;5292997;28;20024;-73
2022/11/25 11:56:06;;;;;;;13.10;3.90;;;;;;;10.56;100.00;101471.13;5286595;28;20089;-72
2022/11/25 11:59:04;;;;;;;10.87;2.63;;;;;;;10.53;100.00;101477.34;5283169;28;20043;-72
2022/11/25 12:01:46;;;;;;;10.40;3.60;;;;;;;10.55;100.00;101478.13;5288457;28;20044;-72
2022/11/25 12:04:26;;;;;;;10.23;2.47;;;;;;;10.65;100.00;101483.72;5291112;28;20027;-72
2022/11/25 12:07:22;;;;;;;7.63;2.40;;;;;;;10.59;100.00;101484.91;5285415;28;20024;-71
2022/11/25 12:10:16;;;;;;;11.90;3.07;;;;;;;10.54;100.00;101479.06;5294372;28;20132;-71